sensor_id;sensor_type;location;lat;lon;timestamp;P1;durP1;ratioP1;P2;durP2;ratioP2
28587;SDS011;15787;49.662;10.162;2024-01-10T00:02:05;24.52;;;11.15;;
28587;SDS011;15787;49.662;10.162;2024-01-10T00:04:40;24.63;;;10.93;;
28587;SDS011;15787;49.662;10.162;2024-01-10T00:07:13;35.08;;;11.00;;
28587;SDS011;15787;49.662;10.162;2024-01-10T00:09:46;30.33;;;10.88;;
28587;SDS011;15787;49.662;10.162;2024-01-10T00:12:19;25.58;;;10.95;;
28587;SDS011;15787;49.662;10.162;2024-01-10T00:14:53;33.80;;;12.20;;
28587;SDS011;15787;49.662;10.162;2024-01-10T00:17:26;27.27;;;10.98;;
28587;SDS011;15787;49.662;10.162;2024-01-10T00:20:06;28.73;;;11.70;;
28587;SDS011;15787;49.662;10.162;2024-01-10T00:22:42;30.77;;;13.73;;
28587;SDS011;15787;49.662;10.162;2024-01-10T00:25:15;31.83;;;11.55;;
28587;SDS011;15787;49.662;10.162;2024-01-10T00:27:49;32.60;;;11.82;;
28587;SDS011;15787;49.662;10.162;2024-01-10T00:30:23;30.23;;;12.20;;
28587;SDS011;15787;49.662;10.162;2024-01-10T00:33:00;25.10;;;11.13;;
28587;SDS011;15787;49.662;10.162;2024-01-10T00:35:33;25.52;;;10.27;;
28587;SDS011;15787;49.662;10.162;2024-01-10T00:38:05;37.92;;;13.13;;
28587;SDS011;15787;49.662;10.162;2024-01-10T00:40:39;34.05;;;12.00;;
28587;SDS011;15787;49.662;10.162;2024-01-10T00:43:12;27.90;;;11.80;;
28587;SDS011;15787;49.662;10.162;2024-01-10T00:45:46;30.17;;;12.70;;
28587;SDS011;15787;49.662;10.162;2024-01-10T00:48:19;25.77;;;11.98;;
28587;SDS011;15787;49.662;10.162;2024-01-10T00:50:52;33.90;;;11.02;;
28587;SDS011;15787;49.662;10.162;2024-01-10T00:53:25;28.60;;;11.60;;
28587;SDS011;15787;49.662;10.162;2024-01-10T00:55:58;32.78;;;13.00;;
28587;SDS011;15787;49.662;10.162;2024-01-10T00:58:31;35.88;;;11.82;;
28587;SDS011;15787;49.662;10.162;2024-01-10T01:01:05;29.63;;;11.23;;
28587;SDS011;15787;49.662;10.162;2024-01-10T01:03:38;29.08;;;12.05;;
28587;SDS011;15787;49.662;10.162;2024-01-10T01:06:11;31.58;;;13.05;;
28587;SDS011;15787;49.662;10.162;2024-01-10T01:08:44;31.83;;;12.23;;
28587;SDS011;15787;49.662;10.162;2024-01-10T01:11:16;25.67;;;12.25;;
28587;SDS011;15787;49.662;10.162;2024-01-10T01:13:49;32.47;;;12.88;;
28587;SDS011;15787;49.662;10.162;2024-01-10T01:16:23;32.10;;;12.30;;
28587;SDS011;15787;49.662;10.162;2024-01-10T01:18:56;31.45;;;12.18;;
28587;SDS011;15787;49.662;10.162;2024-01-10T01:21:29;29.65;;;12.05;;
28587;SDS011;15787;49.662;10.162;2024-01-10T01:24:02;29.05;;;13.50;;
28587;SDS011;15787;49.662;10.162;2024-01-10T01:26:35;31.42;;;11.13;;
28587;SDS011;15787;49.662;10.162;2024-01-10T01:29:08;34.58;;;12.68;;
28587;SDS011;15787;49.662;10.162;2024-01-10T01:31:42;29.23;;;11.75;;
28587;SDS011;15787;49.662;10.162;2024-01-10T01:34:15;39.22;;;12.95;;
28587;SDS011;15787;49.662;10.162;2024-01-10T01:36:48;33.05;;;12.43;;
28587;SDS011;15787;49.662;10.162;2024-01-10T01:39:22;26.30;;;11.65;;
28587;SDS011;15787;49.662;10.162;2024-01-10T01:41:55;30.35;;;11.85;;
28587;SDS011;15787;49.662;10.162;2024-01-10T01:44:28;28.02;;;11.10;;
28587;SDS011;15787;49.662;10.162;2024-01-10T01:47:04;38.40;;;14.23;;
28587;SDS011;15787;49.662;10.162;2024-01-10T01:49:37;34.97;;;13.25;;
28587;SDS011;15787;49.662;10.162;2024-01-10T01:52:10;42.92;;;14.50;;
28587;SDS011;15787;49.662;10.162;2024-01-10T01:54:43;49.28;;;15.38;;
28587;SDS011;15787;49.662;10.162;2024-01-10T01:57:16;42.63;;;15.98;;
28587;SDS011;15787;49.662;10.162;2024-01-10T01:59:49;42.15;;;14.68;;
28587;SDS011;15787;49.662;10.162;2024-01-10T02:02:24;40.47;;;15.75;;
28587;SDS011;15787;49.662;10.162;2024-01-10T02:04:57;32.20;;;14.40;;
28587;SDS011;15787;49.662;10.162;2024-01-10T02:07:31;40.42;;;13.85;;
28587;SDS011;15787;49.662;10.162;2024-01-10T02:10:04;30.23;;;12.60;;
28587;SDS011;15787;49.662;10.162;2024-01-10T02:12:38;38.33;;;13.60;;
28587;SDS011;15787;49.662;10.162;2024-01-10T02:15:11;38.17;;;13.75;;
28587;SDS011;15787;49.662;10.162;2024-01-10T02:17:45;31.52;;;13.02;;
28587;SDS011;15787;49.662;10.162;2024-01-10T02:20:18;33.25;;;13.57;;
28587;SDS011;15787;49.662;10.162;2024-01-10T02:22:52;32.22;;;13.25;;
28587;SDS011;15787;49.662;10.162;2024-01-10T02:25:26;40.80;;;13.80;;
28587;SDS011;15787;49.662;10.162;2024-01-10T02:27:59;31.15;;;12.68;;
28587;SDS011;15787;49.662;10.162;2024-01-10T02:30:32;35.47;;;12.77;;
28587;SDS011;15787;49.662;10.162;2024-01-10T02:33:05;36.47;;;12.48;;
28587;SDS011;15787;49.662;10.162;2024-01-10T02:35:37;37.55;;;12.65;;
28587;SDS011;15787;49.662;10.162;2024-01-10T02:38:10;33.45;;;12.60;;
28587;SDS011;15787;49.662;10.162;2024-01-10T02:40:44;37.33;;;12.93;;
28587;SDS011;15787;49.662;10.162;2024-01-10T02:43:17;32.03;;;13.45;;
28587;SDS011;15787;49.662;10.162;2024-01-10T02:45:50;33.55;;;13.85;;
28587;SDS011;15787;49.662;10.162;2024-01-10T02:48:23;37.33;;;13.77;;
28587;SDS011;15787;49.662;10.162;2024-01-10T02:50:56;37.00;;;13.32;;
28587;SDS011;15787;49.662;10.162;2024-01-10T02:53:28;32.88;;;13.20;;
28587;SDS011;15787;49.662;10.162;2024-01-10T02:56:03;37.47;;;14.05;;
28587;SDS011;15787;49.662;10.162;2024-01-10T02:58:36;24.95;;;11.90;;
28587;SDS011;15787;49.662;10.162;2024-01-10T03:01:09;35.47;;;13.98;;
28587;SDS011;15787;49.662;10.162;2024-01-10T03:03:43;32.03;;;14.13;;
28587;SDS011;15787;49.662;10.162;2024-01-10T03:06:15;39.88;;;14.85;;
28587;SDS011;15787;49.662;10.162;2024-01-10T03:08:48;41.13;;;15.85;;
28587;SDS011;15787;49.662;10.162;2024-01-10T03:11:22;33.08;;;14.93;;
28587;SDS011;15787;49.662;10.162;2024-01-10T03:14:00;38.50;;;13.77;;
28587;SDS011;15787;49.662;10.162;2024-01-10T03:16:33;31.65;;;14.48;;
28587;SDS011;15787;49.662;10.162;2024-01-10T03:19:06;33.80;;;12.88;;
28587;SDS011;15787;49.662;10.162;2024-01-10T03:21:39;31.98;;;12.68;;
28587;SDS011;15787;49.662;10.162;2024-01-10T03:24:12;29.17;;;12.75;;
28587;SDS011;15787;49.662;10.162;2024-01-10T03:26:47;31.30;;;12.45;;
28587;SDS011;15787;49.662;10.162;2024-01-10T03:29:20;28.08;;;11.85;;
28587;SDS011;15787;49.662;10.162;2024-01-10T03:31:53;29.42;;;12.48;;
28587;SDS011;15787;49.662;10.162;2024-01-10T03:34:25;28.20;;;10.32;;
28587;SDS011;15787;49.662;10.162;2024-01-10T03:36:58;26.75;;;11.75;;
28587;SDS011;15787;49.662;10.162;2024-01-10T03:39:31;31.60;;;12.23;;
28587;SDS011;15787;49.662;10.162;2024-01-10T03:42:05;31.27;;;12.23;;
28587;SDS011;15787;49.662;10.162;2024-01-10T03:44:38;27.80;;;11.30;;
28587;SDS011;15787;49.662;10.162;2024-01-10T03:47:11;27.15;;;10.93;;
28587;SDS011;15787;49.662;10.162;2024-01-10T03:49:44;34.22;;;11.48;;
28587;SDS011;15787;49.662;10.162;2024-01-10T03:52:17;26.05;;;10.73;;
28587;SDS011;15787;49.662;10.162;2024-01-10T03:54:50;26.13;;;11.15;;
28587;SDS011;15787;49.662;10.162;2024-01-10T03:57:24;27.90;;;10.73;;
28587;SDS011;15787;49.662;10.162;2024-01-10T03:59:57;26.15;;;11.25;;
28587;SDS011;15787;49.662;10.162;2024-01-10T04:02:30;27.20;;;10.57;;
28587;SDS011;15787;49.662;10.162;2024-01-10T04:05:05;27.08;;;10.48;;
28587;SDS011;15787;49.662;10.162;2024-01-10T04:07:39;29.92;;;11.23;;
28587;SDS011;15787;49.662;10.162;2024-01-10T04:10:13;26.00;;;9.95;;
28587;SDS011;15787;49.662;10.162;2024-01-10T04:12:48;24.95;;;9.98;;
28587;SDS011;15787;49.662;10.162;2024-01-10T04:15:21;31.92;;;11.30;;
28587;SDS011;15787;49.662;10.162;2024-01-10T04:17:54;22.10;;;10.18;;
28587;SDS011;15787;49.662;10.162;2024-01-10T04:20:27;29.65;;;9.93;;
28587;SDS011;15787;49.662;10.162;2024-01-10T04:22:59;25.45;;;10.15;;
28587;SDS011;15787;49.662;10.162;2024-01-10T04:25:32;26.90;;;10.20;;
28587;SDS011;15787;49.662;10.162;2024-01-10T04:28:07;26.23;;;10.07;;
28587;SDS011;15787;49.662;10.162;2024-01-10T04:30:39;28.13;;;10.32;;
28587;SDS011;15787;49.662;10.162;2024-01-10T04:33:12;27.35;;;10.52;;
28587;SDS011;15787;49.662;10.162;2024-01-10T04:35:45;26.85;;;9.00;;
28587;SDS011;15787;49.662;10.162;2024-01-10T04:38:18;28.70;;;10.73;;
28587;SDS011;15787;49.662;10.162;2024-01-10T04:40:52;29.40;;;11.13;;
28587;SDS011;15787;49.662;10.162;2024-01-10T04:43:27;32.83;;;13.40;;
28587;SDS011;15787;49.662;10.162;2024-01-10T04:46:00;29.60;;;11.95;;
28587;SDS011;15787;49.662;10.162;2024-01-10T04:48:33;32.97;;;11.70;;
28587;SDS011;15787;49.662;10.162;2024-01-10T04:51:06;29.15;;;13.10;;
28587;SDS011;15787;49.662;10.162;2024-01-10T04:53:39;34.58;;;11.75;;
28587;SDS011;15787;49.662;10.162;2024-01-10T04:56:15;24.75;;;11.82;;
28587;SDS011;15787;49.662;10.162;2024-01-10T04:58:49;29.27;;;11.43;;
28587;SDS011;15787;49.662;10.162;2024-01-10T05:01:22;28.40;;;11.68;;
28587;SDS011;15787;49.662;10.162;2024-01-10T05:03:55;29.55;;;10.82;;
28587;SDS011;15787;49.662;10.162;2024-01-10T05:06:27;27.67;;;10.82;;
28587;SDS011;15787;49.662;10.162;2024-01-10T05:09:00;31.30;;;11.80;;
28587;SDS011;15787;49.662;10.162;2024-01-10T05:11:33;28.65;;;10.60;;
28587;SDS011;15787;49.662;10.162;2024-01-10T05:14:08;27.48;;;12.05;;
28587;SDS011;15787;49.662;10.162;2024-01-10T05:16:41;38.63;;;13.88;;
28587;SDS011;15787;49.662;10.162;2024-01-10T05:19:14;30.42;;;12.38;;
28587;SDS011;15787;49.662;10.162;2024-01-10T05:21:47;34.00;;;13.07;;
28587;SDS011;15787;49.662;10.162;2024-01-10T05:24:20;30.65;;;12.88;;
28587;SDS011;15787;49.662;10.162;2024-01-10T05:26:53;28.52;;;11.38;;
28587;SDS011;15787;49.662;10.162;2024-01-10T05:29:27;27.33;;;10.85;;
28587;SDS011;15787;49.662;10.162;2024-01-10T05:32:00;40.60;;;13.57;;
28587;SDS011;15787;49.662;10.162;2024-01-10T05:34:33;32.70;;;11.85;;
28587;SDS011;15787;49.662;10.162;2024-01-10T05:37:06;30.88;;;12.43;;
28587;SDS011;15787;49.662;10.162;2024-01-10T05:39:39;33.33;;;12.73;;
28587;SDS011;15787;49.662;10.162;2024-01-10T05:42:11;28.70;;;11.63;;
28587;SDS011;15787;49.662;10.162;2024-01-10T05:44:47;30.52;;;12.73;;
28587;SDS011;15787;49.662;10.162;2024-01-10T05:47:19;35.70;;;14.63;;
28587;SDS011;15787;49.662;10.162;2024-01-10T05:49:52;39.15;;;13.02;;
28587;SDS011;15787;49.662;10.162;2024-01-10T05:52:25;34.70;;;13.15;;
28587;SDS011;15787;49.662;10.162;2024-01-10T05:54:58;33.78;;;12.68;;
28587;SDS011;15787;49.662;10.162;2024-01-10T05:57:32;31.33;;;13.77;;
28587;SDS011;15787;49.662;10.162;2024-01-10T06:00:07;41.40;;;13.18;;
28587;SDS011;15787;49.662;10.162;2024-01-10T06:02:42;32.85;;;13.43;;
28587;SDS011;15787;49.662;10.162;2024-01-10T06:05:15;43.03;;;13.95;;
28587;SDS011;15787;49.662;10.162;2024-01-10T06:07:48;31.35;;;12.95;;
28587;SDS011;15787;49.662;10.162;2024-01-10T06:10:21;33.15;;;12.35;;
28587;SDS011;15787;49.662;10.162;2024-01-10T06:12:54;35.13;;;12.25;;
28587;SDS011;15787;49.662;10.162;2024-01-10T06:15:29;29.67;;;13.48;;
28587;SDS011;15787;49.662;10.162;2024-01-10T06:18:01;35.30;;;13.68;;
28587;SDS011;15787;49.662;10.162;2024-01-10T06:20:35;38.22;;;15.18;;
28587;SDS011;15787;49.662;10.162;2024-01-10T06:23:09;33.33;;;13.75;;
28587;SDS011;15787;49.662;10.162;2024-01-10T06:25:42;34.28;;;13.73;;
28587;SDS011;15787;49.662;10.162;2024-01-10T06:28:15;32.97;;;13.32;;
28587;SDS011;15787;49.662;10.162;2024-01-10T06:30:49;34.10;;;14.93;;
28587;SDS011;15787;49.662;10.162;2024-01-10T06:33:22;60.88;;;18.92;;
28587;SDS011;15787;49.662;10.162;2024-01-10T06:35:55;50.03;;;17.60;;
28587;SDS011;15787;49.662;10.162;2024-01-10T06:38:28;45.35;;;17.05;;
28587;SDS011;15787;49.662;10.162;2024-01-10T06:41:01;39.65;;;15.18;;
28587;SDS011;15787;49.662;10.162;2024-01-10T06:43:40;36.65;;;13.63;;
28587;SDS011;15787;49.662;10.162;2024-01-10T06:46:15;38.08;;;15.25;;
28587;SDS011;15787;49.662;10.162;2024-01-10T06:48:47;40.55;;;15.23;;
28587;SDS011;15787;49.662;10.162;2024-01-10T06:51:21;34.33;;;15.10;;
28587;SDS011;15787;49.662;10.162;2024-01-10T06:53:54;38.88;;;15.05;;
28587;SDS011;15787;49.662;10.162;2024-01-10T06:56:34;35.67;;;15.35;;
28587;SDS011;15787;49.662;10.162;2024-01-10T06:59:07;37.58;;;14.18;;
28587;SDS011;15787;49.662;10.162;2024-01-10T07:01:41;36.17;;;15.02;;
28587;SDS011;15787;49.662;10.162;2024-01-10T07:04:14;37.00;;;13.52;;
28587;SDS011;15787;49.662;10.162;2024-01-10T07:06:51;42.35;;;17.42;;
28587;SDS011;15787;49.662;10.162;2024-01-10T07:09:24;36.67;;;15.65;;
28587;SDS011;15787;49.662;10.162;2024-01-10T07:11:57;42.22;;;17.35;;
28587;SDS011;15787;49.662;10.162;2024-01-10T07:14:30;39.00;;;18.15;;
28587;SDS011;15787;49.662;10.162;2024-01-10T07:17:04;45.65;;;17.10;;
28587;SDS011;15787;49.662;10.162;2024-01-10T07:19:37;43.50;;;19.52;;
28587;SDS011;15787;49.662;10.162;2024-01-10T07:22:11;43.78;;;17.67;;
28587;SDS011;15787;49.662;10.162;2024-01-10T07:24:44;43.25;;;15.20;;
28587;SDS011;15787;49.662;10.162;2024-01-10T07:27:18;36.30;;;14.57;;
28587;SDS011;15787;49.662;10.162;2024-01-10T07:29:51;34.13;;;13.88;;
28587;SDS011;15787;49.662;10.162;2024-01-10T07:32:25;31.52;;;12.85;;
28587;SDS011;15787;49.662;10.162;2024-01-10T07:34:58;43.10;;;13.00;;
28587;SDS011;15787;49.662;10.162;2024-01-10T07:37:31;40.78;;;16.75;;
28587;SDS011;15787;49.662;10.162;2024-01-10T07:40:04;40.40;;;16.65;;
28587;SDS011;15787;49.662;10.162;2024-01-10T07:42:40;51.72;;;17.90;;
28587;SDS011;15787;49.662;10.162;2024-01-10T07:45:13;68.55;;;21.08;;
28587;SDS011;15787;49.662;10.162;2024-01-10T07:47:47;35.88;;;14.55;;
28587;SDS011;15787;49.662;10.162;2024-01-10T07:50:20;50.47;;;16.98;;
28587;SDS011;15787;49.662;10.162;2024-01-10T07:52:58;41.20;;;14.20;;
28587;SDS011;15787;49.662;10.162;2024-01-10T07:55:32;37.15;;;16.92;;
28587;SDS011;15787;49.662;10.162;2024-01-10T07:58:05;43.10;;;16.90;;
28587;SDS011;15787;49.662;10.162;2024-01-10T08:00:38;51.40;;;18.65;;
28587;SDS011;15787;49.662;10.162;2024-01-10T08:03:13;51.78;;;20.40;;
28587;SDS011;15787;49.662;10.162;2024-01-10T08:05:45;56.17;;;19.60;;
28587;SDS011;15787;49.662;10.162;2024-01-10T08:08:19;45.63;;;19.65;;
28587;SDS011;15787;49.662;10.162;2024-01-10T08:10:52;52.30;;;20.70;;
28587;SDS011;15787;49.662;10.162;2024-01-10T08:13:24;39.75;;;18.98;;
28587;SDS011;15787;49.662;10.162;2024-01-10T08:15:57;50.90;;;20.10;;
28587;SDS011;15787;49.662;10.162;2024-01-10T08:18:31;44.92;;;18.98;;
28587;SDS011;15787;49.662;10.162;2024-01-10T08:21:05;35.97;;;15.32;;
28587;SDS011;15787;49.662;10.162;2024-01-10T08:23:38;34.63;;;13.98;;
28587;SDS011;15787;49.662;10.162;2024-01-10T08:26:11;38.03;;;15.63;;
28587;SDS011;15787;49.662;10.162;2024-01-10T08:28:44;37.17;;;14.98;;
28587;SDS011;15787;49.662;10.162;2024-01-10T08:31:18;37.63;;;15.35;;
28587;SDS011;15787;49.662;10.162;2024-01-10T08:33:52;34.60;;;13.20;;
28587;SDS011;15787;49.662;10.162;2024-01-10T08:36:25;35.80;;;13.68;;
28587;SDS011;15787;49.662;10.162;2024-01-10T08:38:58;29.80;;;13.65;;
28587;SDS011;15787;49.662;10.162;2024-01-10T08:41:32;32.17;;;13.40;;
28587;SDS011;15787;49.662;10.162;2024-01-10T08:44:05;43.08;;;17.70;;
28587;SDS011;15787;49.662;10.162;2024-01-10T08:46:38;40.28;;;15.80;;
28587;SDS011;15787;49.662;10.162;2024-01-10T08:49:12;41.05;;;14.73;;
28587;SDS011;15787;49.662;10.162;2024-01-10T08:51:45;38.38;;;15.45;;
28587;SDS011;15787;49.662;10.162;2024-01-10T08:54:18;35.40;;;15.68;;
28587;SDS011;15787;49.662;10.162;2024-01-10T08:56:53;41.08;;;16.02;;
28587;SDS011;15787;49.662;10.162;2024-01-10T08:59:26;44.65;;;14.13;;
28587;SDS011;15787;49.662;10.162;2024-01-10T09:02:00;43.65;;;15.27;;
28587;SDS011;15787;49.662;10.162;2024-01-10T09:04:34;40.90;;;16.27;;
28587;SDS011;15787;49.662;10.162;2024-01-10T09:07:08;39.72;;;14.35;;
28587;SDS011;15787;49.662;10.162;2024-01-10T09:09:41;41.45;;;16.55;;
28587;SDS011;15787;49.662;10.162;2024-01-10T09:12:15;37.22;;;16.48;;
28587;SDS011;15787;49.662;10.162;2024-01-10T09:14:48;36.67;;;17.85;;
28587;SDS011;15787;49.662;10.162;2024-01-10T09:17:20;48.55;;;18.35;;
28587;SDS011;15787;49.662;10.162;2024-01-10T09:19:55;47.53;;;17.83;;
28587;SDS011;15787;49.662;10.162;2024-01-10T09:22:29;36.38;;;16.70;;
28587;SDS011;15787;49.662;10.162;2024-01-10T09:25:02;33.08;;;15.70;;
28587;SDS011;15787;49.662;10.162;2024-01-10T09:27:38;33.40;;;15.75;;
28587;SDS011;15787;49.662;10.162;2024-01-10T09:30:13;37.35;;;15.52;;
28587;SDS011;15787;49.662;10.162;2024-01-10T09:32:48;32.60;;;14.13;;
28587;SDS011;15787;49.662;10.162;2024-01-10T09:35:23;28.08;;;13.60;;
28587;SDS011;15787;49.662;10.162;2024-01-10T09:37:56;21.90;;;10.15;;
28587;SDS011;15787;49.662;10.162;2024-01-10T09:40:30;29.67;;;13.63;;
28587;SDS011;15787;49.662;10.162;2024-01-10T09:43:03;27.20;;;11.88;;
28587;SDS011;15787;49.662;10.162;2024-01-10T09:45:41;31.02;;;12.88;;
28587;SDS011;15787;49.662;10.162;2024-01-10T09:48:18;26.35;;;11.43;;
28587;SDS011;15787;49.662;10.162;2024-01-10T09:50:52;30.02;;;11.07;;
28587;SDS011;15787;49.662;10.162;2024-01-10T09:53:25;23.10;;;11.70;;
28587;SDS011;15787;49.662;10.162;2024-01-10T09:56:03;26.23;;;12.05;;
28587;SDS011;15787;49.662;10.162;2024-01-10T09:58:36;24.17;;;9.10;;
28587;SDS011;15787;49.662;10.162;2024-01-10T10:01:12;27.08;;;9.73;;
28587;SDS011;15787;49.662;10.162;2024-01-10T10:03:45;28.08;;;10.45;;
28587;SDS011;15787;49.662;10.162;2024-01-10T10:06:22;21.65;;;9.65;;
28587;SDS011;15787;49.662;10.162;2024-01-10T10:08:55;24.55;;;9.02;;
28587;SDS011;15787;49.662;10.162;2024-01-10T10:11:28;25.45;;;10.57;;
28587;SDS011;15787;49.662;10.162;2024-01-10T10:14:13;22.30;;;10.18;;
28587;SDS011;15787;49.662;10.162;2024-01-10T10:16:47;22.27;;;10.00;;
28587;SDS011;15787;49.662;10.162;2024-01-10T10:19:22;24.55;;;10.13;;
28587;SDS011;15787;49.662;10.162;2024-01-10T10:22:12;21.55;;;8.70;;
28587;SDS011;15787;49.662;10.162;2024-01-10T10:24:47;22.10;;;9.45;;
28587;SDS011;15787;49.662;10.162;2024-01-10T10:27:20;22.73;;;9.43;;
28587;SDS011;15787;49.662;10.162;2024-01-10T10:29:54;23.50;;;9.75;;
28587;SDS011;15787;49.662;10.162;2024-01-10T10:32:28;20.02;;;8.27;;
28587;SDS011;15787;49.662;10.162;2024-01-10T10:35:03;21.35;;;9.52;;
28587;SDS011;15787;49.662;10.162;2024-01-10T10:37:41;22.92;;;9.95;;
28587;SDS011;15787;49.662;10.162;2024-01-10T10:40:14;23.40;;;9.52;;
28587;SDS011;15787;49.662;10.162;2024-01-10T10:42:56;19.02;;;8.32;;
28587;SDS011;15787;49.662;10.162;2024-01-10T10:45:29;23.08;;;9.63;;
28587;SDS011;15787;49.662;10.162;2024-01-10T10:48:04;23.98;;;9.93;;
28587;SDS011;15787;49.662;10.162;2024-01-10T10:50:42;20.67;;;8.85;;
28587;SDS011;15787;49.662;10.162;2024-01-10T10:53:25;25.08;;;10.90;;
28587;SDS011;15787;49.662;10.162;2024-01-10T10:56:00;24.63;;;10.88;;
28587;SDS011;15787;49.662;10.162;2024-01-10T10:58:35;18.15;;;8.98;;
28587;SDS011;15787;49.662;10.162;2024-01-10T11:01:11;23.30;;;10.15;;
28587;SDS011;15787;49.662;10.162;2024-01-10T11:03:45;21.88;;;10.05;;
28587;SDS011;15787;49.662;10.162;2024-01-10T11:06:20;21.52;;;9.18;;
28587;SDS011;15787;49.662;10.162;2024-01-10T11:08:58;24.38;;;11.07;;
28587;SDS011;15787;49.662;10.162;2024-01-10T11:11:37;25.95;;;11.05;;
28587;SDS011;15787;49.662;10.162;2024-01-10T11:14:26;24.13;;;11.00;;
28587;SDS011;15787;49.662;10.162;2024-01-10T11:20:15;29.40;;;12.32;;
28587;SDS011;15787;49.662;10.162;2024-01-10T11:23:08;23.38;;;11.02;;
28587;SDS011;15787;49.662;10.162;2024-01-10T11:25:54;28.40;;;11.30;;
28587;SDS011;15787;49.662;10.162;2024-01-10T11:28:30;24.95;;;11.35;;
28587;SDS011;15787;49.662;10.162;2024-01-10T11:31:03;24.60;;;11.18;;
28587;SDS011;15787;49.662;10.162;2024-01-10T11:33:39;24.90;;;11.45;;
28587;SDS011;15787;49.662;10.162;2024-01-10T11:36:15;27.75;;;12.30;;
28587;SDS011;15787;49.662;10.162;2024-01-10T11:38:50;25.13;;;10.48;;
28587;SDS011;15787;49.662;10.162;2024-01-10T11:41:30;22.23;;;10.52;;
28587;SDS011;15787;49.662;10.162;2024-01-10T11:47:00;20.33;;;10.55;;
28587;SDS011;15787;49.662;10.162;2024-01-10T11:49:33;21.75;;;10.82;;
28587;SDS011;15787;49.662;10.162;2024-01-10T11:52:06;24.10;;;11.70;;
28587;SDS011;15787;49.662;10.162;2024-01-10T11:54:42;25.08;;;10.32;;
28587;SDS011;15787;49.662;10.162;2024-01-10T11:57:22;26.52;;;10.73;;
28587;SDS011;15787;49.662;10.162;2024-01-10T12:00:00;27.60;;;11.80;;
28587;SDS011;15787;49.662;10.162;2024-01-10T12:02:37;22.52;;;11.32;;
28587;SDS011;15787;49.662;10.162;2024-01-10T12:09:17;28.77;;;12.15;;
28587;SDS011;15787;49.662;10.162;2024-01-10T12:11:50;25.20;;;11.60;;
28587;SDS011;15787;49.662;10.162;2024-01-10T12:14:24;24.77;;;10.88;;
28587;SDS011;15787;49.662;10.162;2024-01-10T12:16:59;25.45;;;11.20;;
28587;SDS011;15787;49.662;10.162;2024-01-10T12:19:32;25.73;;;11.48;;
28587;SDS011;15787;49.662;10.162;2024-01-10T12:22:06;26.38;;;11.23;;
28587;SDS011;15787;49.662;10.162;2024-01-10T12:24:42;25.25;;;10.85;;
28587;SDS011;15787;49.662;10.162;2024-01-10T12:27:17;25.73;;;11.00;;
28587;SDS011;15787;49.662;10.162;2024-01-10T12:29:52;24.98;;;11.32;;
28587;SDS011;15787;49.662;10.162;2024-01-10T12:32:25;23.60;;;11.75;;
28587;SDS011;15787;49.662;10.162;2024-01-10T12:34:59;21.50;;;11.30;;
28587;SDS011;15787;49.662;10.162;2024-01-10T12:37:33;24.90;;;11.13;;
28587;SDS011;15787;49.662;10.162;2024-01-10T12:40:07;23.20;;;11.90;;
28587;SDS011;15787;49.662;10.162;2024-01-10T12:42:42;24.52;;;11.32;;
28587;SDS011;15787;49.662;10.162;2024-01-10T12:45:23;26.08;;;11.95;;
28587;SDS011;15787;49.662;10.162;2024-01-10T12:47:57;23.65;;;9.88;;
28587;SDS011;15787;49.662;10.162;2024-01-10T12:50:30;23.13;;;11.15;;
28587;SDS011;15787;49.662;10.162;2024-01-10T12:53:04;24.38;;;10.85;;
28587;SDS011;15787;49.662;10.162;2024-01-10T12:55:37;26.05;;;11.10;;
28587;SDS011;15787;49.662;10.162;2024-01-10T12:58:10;22.92;;;9.65;;
28587;SDS011;15787;49.662;10.162;2024-01-10T13:00:44;27.48;;;11.98;;
28587;SDS011;15787;49.662;10.162;2024-01-10T13:03:17;23.73;;;10.25;;
28587;SDS011;15787;49.662;10.162;2024-01-10T13:05:50;23.35;;;12.02;;
28587;SDS011;15787;49.662;10.162;2024-01-10T13:08:24;23.58;;;10.55;;
28587;SDS011;15787;49.662;10.162;2024-01-10T13:10:57;26.42;;;11.45;;
28587;SDS011;15787;49.662;10.162;2024-01-10T13:13:31;27.67;;;12.50;;
28587;SDS011;15787;49.662;10.162;2024-01-10T13:16:05;27.30;;;11.80;;
28587;SDS011;15787;49.662;10.162;2024-01-10T13:18:38;25.58;;;10.98;;
28587;SDS011;15787;49.662;10.162;2024-01-10T13:21:14;22.88;;;11.05;;
28587;SDS011;15787;49.662;10.162;2024-01-10T13:23:47;23.50;;;11.02;;
28587;SDS011;15787;49.662;10.162;2024-01-10T13:26:19;25.95;;;11.25;;
28587;SDS011;15787;49.662;10.162;2024-01-10T13:28:53;25.77;;;12.15;;
28587;SDS011;15787;49.662;10.162;2024-01-10T13:31:27;27.60;;;11.35;;
28587;SDS011;15787;49.662;10.162;2024-01-10T13:34:00;27.55;;;11.77;;
28587;SDS011;15787;49.662;10.162;2024-01-10T13:36:35;25.85;;;11.50;;
28587;SDS011;15787;49.662;10.162;2024-01-10T13:39:08;26.92;;;11.02;;
28587;SDS011;15787;49.662;10.162;2024-01-10T13:41:46;24.73;;;12.02;;
28587;SDS011;15787;49.662;10.162;2024-01-10T13:44:19;23.08;;;10.00;;
28587;SDS011;15787;49.662;10.162;2024-01-10T13:46:54;26.63;;;11.95;;
28587;SDS011;15787;49.662;10.162;2024-01-10T13:49:28;22.05;;;10.88;;
28587;SDS011;15787;49.662;10.162;2024-01-10T13:52:01;28.90;;;12.23;;
28587;SDS011;15787;49.662;10.162;2024-01-10T13:54:34;24.75;;;11.23;;
28587;SDS011;15787;49.662;10.162;2024-01-10T13:57:08;25.13;;;11.85;;
28587;SDS011;15787;49.662;10.162;2024-01-10T13:59:41;27.50;;;11.77;;
28587;SDS011;15787;49.662;10.162;2024-01-10T14:02:15;27.58;;;12.48;;
28587;SDS011;15787;49.662;10.162;2024-01-10T14:04:51;28.92;;;13.55;;
28587;SDS011;15787;49.662;10.162;2024-01-10T14:07:25;27.45;;;12.43;;
28587;SDS011;15787;49.662;10.162;2024-01-10T14:09:59;28.23;;;12.95;;
28587;SDS011;15787;49.662;10.162;2024-01-10T14:12:34;26.45;;;12.27;;
28587;SDS011;15787;49.662;10.162;2024-01-10T14:15:08;36.22;;;12.57;;
28587;SDS011;15787;49.662;10.162;2024-01-10T14:17:43;25.45;;;12.35;;
28587;SDS011;15787;49.662;10.162;2024-01-10T14:20:16;27.00;;;11.90;;
28587;SDS011;15787;49.662;10.162;2024-01-10T14:22:50;26.83;;;11.60;;
28587;SDS011;15787;49.662;10.162;2024-01-10T14:25:23;25.80;;;12.27;;
28587;SDS011;15787;49.662;10.162;2024-01-10T14:27:56;25.70;;;11.63;;
28587;SDS011;15787;49.662;10.162;2024-01-10T14:30:30;26.42;;;11.52;;
28587;SDS011;15787;49.662;10.162;2024-01-10T14:33:05;25.42;;;11.98;;
28587;SDS011;15787;49.662;10.162;2024-01-10T14:35:38;27.35;;;12.05;;
28587;SDS011;15787;49.662;10.162;2024-01-10T14:38:12;24.40;;;12.98;;
28587;SDS011;15787;49.662;10.162;2024-01-10T14:40:45;27.13;;;11.73;;
28587;SDS011;15787;49.662;10.162;2024-01-10T14:43:18;26.98;;;11.73;;
28587;SDS011;15787;49.662;10.162;2024-01-10T14:45:51;25.17;;;11.52;;
28587;SDS011;15787;49.662;10.162;2024-01-10T14:48:25;25.00;;;11.63;;
28587;SDS011;15787;49.662;10.162;2024-01-10T14:50:58;29.90;;;12.45;;
28587;SDS011;15787;49.662;10.162;2024-01-10T14:53:34;26.58;;;11.85;;
28587;SDS011;15787;49.662;10.162;2024-01-10T14:56:07;29.83;;;12.55;;
28587;SDS011;15787;49.662;10.162;2024-01-10T14:58:41;25.05;;;12.27;;